sensor_id;sensor_type;location;lat;lon;timestamp;P1;durP1;ratioP1;P2;durP2;ratioP2
26582;SDS011;14230;45.382;10.998;2022-07-29T08:20:09;10.35;;;2.90;;
26582;SDS011;14230;45.382;10.998;2022-07-29T08:22:37;256.60;;;23.38;;
26582;SDS011;14230;45.382;10.998;2022-07-29T08:25:09;103.95;;;11.68;;
26582;SDS011;14230;45.382;10.998;2022-07-29T08:27:42;4.38;;;2.60;;
26582;SDS011;14230;45.382;10.998;2022-07-29T08:30:23;3.08;;;2.40;;
26582;SDS011;14230;45.382;10.998;2022-07-29T08:32:52;6.10;;;3.33;;
26582;SDS011;14230;45.382;10.998;2022-07-29T08:35:22;5.78;;;2.72;;
26582;SDS011;14230;45.382;10.998;2022-07-29T08:37:51;5.07;;;3.15;;
26582;SDS011;14230;45.382;10.998;2022-07-29T08:53:26;6.97;;;2.47;;
26582;SDS011;14230;45.382;10.998;2022-07-29T09:05:47;4.82;;;2.13;;
26582;SDS011;14230;45.382;10.998;2022-07-29T09:08:15;4.88;;;3.13;;
26582;SDS011;14230;45.382;10.998;2022-07-29T09:10:47;4.68;;;2.78;;
26582;SDS011;14230;45.382;10.998;2022-07-29T09:13:15;5.70;;;3.70;;
26582;SDS011;14230;45.382;10.998;2022-07-29T09:15:43;2.97;;;2.10;;
26582;SDS011;14230;45.382;10.998;2022-07-29T09:18:11;4.82;;;2.47;;
26582;SDS011;14230;45.382;10.998;2022-07-29T09:20:56;6.13;;;2.95;;
26582;SDS011;14230;45.382;10.998;2022-07-29T09:24:03;4.85;;;2.47;;
26582;SDS011;14230;45.382;10.998;2022-07-29T09:35:40;3.20;;;2.90;;
26582;SDS011;14230;45.382;10.998;2022-07-29T09:44:02;4.00;;;2.92;;
26582;SDS011;14230;45.382;10.998;2022-07-29T09:52:18;4.75;;;2.50;;
26582;SDS011;14230;45.382;10.998;2022-07-29T09:54:44;4.72;;;2.42;;
26582;SDS011;14230;45.382;10.998;2022-07-29T09:58:19;5.72;;;2.38;;
26582;SDS011;14230;45.382;10.998;2022-07-29T10:00:49;6.82;;;2.90;;
26582;SDS011;14230;45.382;10.998;2022-07-29T10:03:19;2.83;;;2.55;;
26582;SDS011;14230;45.382;10.998;2022-07-29T10:06:10;4.15;;;2.95;;
26582;SDS011;14230;45.382;10.998;2022-07-29T10:08:40;3.20;;;2.90;;
26582;SDS011;14230;45.382;10.998;2022-07-29T10:11:09;5.72;;;2.75;;
26582;SDS011;14230;45.382;10.998;2022-07-29T10:13:41;2.45;;;2.25;;
26582;SDS011;14230;45.382;10.998;2022-07-29T10:16:11;4.78;;;2.35;;
26582;SDS011;14230;45.382;10.998;2022-07-29T10:18:43;2.70;;;2.50;;
26582;SDS011;14230;45.382;10.998;2022-07-29T10:21:11;2.92;;;2.40;;
26582;SDS011;14230;45.382;10.998;2022-07-29T10:23:59;4.45;;;2.47;;
26582;SDS011;14230;45.382;10.998;2022-07-29T10:26:28;3.13;;;2.30;;
26582;SDS011;14230;45.382;10.998;2022-07-29T10:28:57;4.22;;;2.28;;
26582;SDS011;14230;45.382;10.998;2022-07-29T10:31:29;3.83;;;2.33;;
26582;SDS011;14230;45.382;10.998;2022-07-29T10:34:23;4.13;;;2.63;;
26582;SDS011;14230;45.382;10.998;2022-07-29T10:43:28;3.63;;;2.58;;
26582;SDS011;14230;45.382;10.998;2022-07-29T10:45:59;5.35;;;4.85;;
26582;SDS011;14230;45.382;10.998;2022-07-29T10:48:28;4.75;;;2.65;;
26582;SDS011;14230;45.382;10.998;2022-07-29T10:53:50;3.25;;;2.78;;
26582;SDS011;14230;45.382;10.998;2022-07-29T11:01:50;8.73;;;2.70;;
26582;SDS011;14230;45.382;10.998;2022-07-29T11:05:09;8.38;;;3.22;;
26582;SDS011;14230;45.382;10.998;2022-07-29T11:07:32;9.48;;;3.38;;
26582;SDS011;14230;45.382;10.998;2022-07-29T11:15:10;5.65;;;3.72;;
26582;SDS011;14230;45.382;10.998;2022-07-29T11:20:39;6.43;;;3.22;;
26582;SDS011;14230;45.382;10.998;2022-07-29T11:31:41;4.53;;;3.15;;
26582;SDS011;14230;45.382;10.998;2022-07-29T11:34:18;4.32;;;3.70;;
26582;SDS011;14230;45.382;10.998;2022-07-29T11:45:16;3.78;;;3.47;;
26582;SDS011;14230;45.382;10.998;2022-07-29T11:48:14;5.95;;;3.50;;
26582;SDS011;14230;45.382;10.998;2022-07-29T11:50:56;5.45;;;3.95;;
26582;SDS011;14230;45.382;10.998;2022-07-29T11:53:24;4.60;;;3.72;;
26582;SDS011;14230;45.382;10.998;2022-07-29T11:56:12;7.35;;;3.50;;
26582;SDS011;14230;45.382;10.998;2022-07-29T11:58:43;7.10;;;3.72;;
26582;SDS011;14230;45.382;10.998;2022-07-29T12:01:15;5.30;;;3.60;;
26582;SDS011;14230;45.382;10.998;2022-07-29T12:03:44;6.03;;;3.63;;
26582;SDS011;14230;45.382;10.998;2022-07-29T12:06:12;5.43;;;3.22;;
26582;SDS011;14230;45.382;10.998;2022-07-29T12:08:45;6.43;;;4.15;;
26582;SDS011;14230;45.382;10.998;2022-07-29T12:11:17;6.65;;;4.07;;
26582;SDS011;14230;45.382;10.998;2022-07-29T12:13:49;5.68;;;4.43;;
26582;SDS011;14230;45.382;10.998;2022-07-29T12:16:19;11.27;;;4.30;;
26582;SDS011;14230;45.382;10.998;2022-07-29T12:18:59;6.10;;;3.70;;
26582;SDS011;14230;45.382;10.998;2022-07-29T12:21:43;9.73;;;4.35;;
26582;SDS011;14230;45.382;10.998;2022-07-29T12:24:22;8.48;;;4.72;;
26582;SDS011;14230;45.382;10.998;2022-07-29T12:29:21;4.85;;;3.88;;
26582;SDS011;14230;45.382;10.998;2022-07-29T12:32:01;5.72;;;3.90;;
26582;SDS011;14230;45.382;10.998;2022-07-29T12:34:45;5.25;;;3.78;;
26582;SDS011;14230;45.382;10.998;2022-07-29T12:37:13;6.07;;;3.65;;
26582;SDS011;14230;45.382;10.998;2022-07-29T12:39:40;4.10;;;3.65;;
26582;SDS011;14230;45.382;10.998;2022-07-29T12:42:12;6.60;;;3.65;;
26582;SDS011;14230;45.382;10.998;2022-07-29T12:44:48;4.65;;;3.70;;
26582;SDS011;14230;45.382;10.998;2022-07-29T12:47:17;4.47;;;3.58;;
26582;SDS011;14230;45.382;10.998;2022-07-29T12:49:45;4.70;;;3.72;;
26582;SDS011;14230;45.382;10.998;2022-07-29T12:52:27;5.13;;;3.85;;
26582;SDS011;14230;45.382;10.998;2022-07-29T12:54:59;7.07;;;3.90;;
26582;SDS011;14230;45.382;10.998;2022-07-29T12:57:27;4.15;;;3.78;;
26582;SDS011;14230;45.382;10.998;2022-07-29T13:00:09;4.88;;;3.67;;
26582;SDS011;14230;45.382;10.998;2022-07-29T13:02:39;5.80;;;3.50;;
26582;SDS011;14230;45.382;10.998;2022-07-29T13:05:09;4.15;;;3.70;;
26582;SDS011;14230;45.382;10.998;2022-07-29T13:07:39;5.07;;;3.55;;
26582;SDS011;14230;45.382;10.998;2022-07-29T13:10:22;4.20;;;3.80;;
26582;SDS011;14230;45.382;10.998;2022-07-29T13:13:06;4.75;;;3.63;;
26582;SDS011;14230;45.382;10.998;2022-07-29T13:15:39;6.90;;;3.47;;
26582;SDS011;14230;45.382;10.998;2022-07-29T13:18:29;5.85;;;3.80;;
26582;SDS011;14230;45.382;10.998;2022-07-29T13:21:09;9.55;;;3.72;;
26582;SDS011;14230;45.382;10.998;2022-07-29T13:23:42;7.28;;;3.67;;
26582;SDS011;14230;45.382;10.998;2022-07-29T13:26:10;6.63;;;4.05;;
26582;SDS011;14230;45.382;10.998;2022-07-29T13:28:43;4.45;;;3.60;;
26582;SDS011;14230;45.382;10.998;2022-07-29T13:31:10;4.75;;;3.83;;
26582;SDS011;14230;45.382;10.998;2022-07-29T13:33:38;5.45;;;3.40;;
26582;SDS011;14230;45.382;10.998;2022-07-29T13:36:13;6.00;;;3.75;;
26582;SDS011;14230;45.382;10.998;2022-07-29T13:38:41;6.15;;;3.75;;
26582;SDS011;14230;45.382;10.998;2022-07-29T13:41:08;4.30;;;3.90;;
26582;SDS011;14230;45.382;10.998;2022-07-29T13:43:36;6.60;;;3.90;;
26582;SDS011;14230;45.382;10.998;2022-07-29T13:46:03;7.90;;;4.00;;
26582;SDS011;14230;45.382;10.998;2022-07-29T13:48:31;5.93;;;3.90;;
26582;SDS011;14230;45.382;10.998;2022-07-29T13:50:58;4.28;;;3.35;;
26582;SDS011;14230;45.382;10.998;2022-07-29T13:53:26;5.80;;;3.90;;
26582;SDS011;14230;45.382;10.998;2022-07-29T13:55:54;6.60;;;3.85;;
26582;SDS011;14230;45.382;10.998;2022-07-29T13:58:22;5.85;;;4.10;;
26582;SDS011;14230;45.382;10.998;2022-07-29T14:00:49;10.68;;;4.05;;
26582;SDS011;14230;45.382;10.998;2022-07-29T14:03:17;6.28;;;3.63;;
26582;SDS011;14230;45.382;10.998;2022-07-29T14:05:44;5.28;;;3.90;;
26582;SDS011;14230;45.382;10.998;2022-07-29T14:08:12;3.60;;;3.30;;
26582;SDS011;14230;45.382;10.998;2022-07-29T14:10:39;5.30;;;3.40;;
26582;SDS011;14230;45.382;10.998;2022-07-29T14:13:07;7.78;;;4.15;;
26582;SDS011;14230;45.382;10.998;2022-07-29T14:15:52;4.07;;;3.67;;
26582;SDS011;14230;45.382;10.998;2022-07-29T14:18:20;5.20;;;3.70;;
26582;SDS011;14230;45.382;10.998;2022-07-29T14:20:47;5.53;;;3.33;;
26582;SDS011;14230;45.382;10.998;2022-07-29T14:23:14;6.82;;;3.60;;
26582;SDS011;14230;45.382;10.998;2022-07-29T14:25:45;7.13;;;3.92;;
26582;SDS011;14230;45.382;10.998;2022-07-29T14:28:15;5.03;;;4.03;;
26582;SDS011;14230;45.382;10.998;2022-07-29T14:30:42;5.20;;;3.70;;
26582;SDS011;14230;45.382;10.998;2022-07-29T14:33:10;6.20;;;4.13;;
26582;SDS011;14230;45.382;10.998;2022-07-29T14:35:37;4.30;;;3.58;;
26582;SDS011;14230;45.382;10.998;2022-07-29T14:38:05;4.45;;;3.67;;
26582;SDS011;14230;45.382;10.998;2022-07-29T14:40:32;7.07;;;3.80;;
26582;SDS011;14230;45.382;10.998;2022-07-29T14:43:00;5.88;;;4.10;;
26582;SDS011;14230;45.382;10.998;2022-07-29T14:45:28;6.28;;;4.00;;
26582;SDS011;14230;45.382;10.998;2022-07-29T14:47:56;6.30;;;3.75;;
26582;SDS011;14230;45.382;10.998;2022-07-29T14:50:24;6.10;;;3.88;;
26582;SDS011;14230;45.382;10.998;2022-07-29T14:52:58;6.55;;;4.75;;
26582;SDS011;14230;45.382;10.998;2022-07-29T14:55:26;4.25;;;3.72;;
26582;SDS011;14230;45.382;10.998;2022-07-29T14:57:54;10.27;;;3.80;;
26582;SDS011;14230;45.382;10.998;2022-07-29T15:00:33;10.50;;;4.20;;
26582;SDS011;14230;45.382;10.998;2022-07-29T15:03:01;5.00;;;3.40;;
26582;SDS011;14230;45.382;10.998;2022-07-29T15:05:32;4.68;;;4.22;;
26582;SDS011;14230;45.382;10.998;2022-07-29T15:07:59;7.95;;;3.45;;
26582;SDS011;14230;45.382;10.998;2022-07-29T15:10:27;6.57;;;3.75;;
26582;SDS011;14230;45.382;10.998;2022-07-29T15:12:55;7.57;;;3.80;;
26582;SDS011;14230;45.382;10.998;2022-07-29T15:15:23;8.38;;;3.60;;
26582;SDS011;14230;45.382;10.998;2022-07-29T15:17:51;5.90;;;3.38;;
26582;SDS011;14230;45.382;10.998;2022-07-29T15:20:19;9.38;;;4.25;;
26582;SDS011;14230;45.382;10.998;2022-07-29T15:22:46;8.32;;;4.00;;
26582;SDS011;14230;45.382;10.998;2022-07-29T15:25:14;8.43;;;3.90;;
26582;SDS011;14230;45.382;10.998;2022-07-29T15:27:41;5.88;;;3.83;;
26582;SDS011;14230;45.382;10.998;2022-07-29T15:30:15;6.30;;;4.35;;
26582;SDS011;14230;45.382;10.998;2022-07-29T15:32:59;9.90;;;4.10;;
26582;SDS011;14230;45.382;10.998;2022-07-29T15:35:27;12.15;;;4.72;;
26582;SDS011;14230;45.382;10.998;2022-07-29T15:37:54;7.72;;;4.72;;
26582;SDS011;14230;45.382;10.998;2022-07-29T15:40:22;14.25;;;5.15;;
26582;SDS011;14230;45.382;10.998;2022-07-29T15:42:49;7.00;;;4.53;;
26582;SDS011;14230;45.382;10.998;2022-07-29T15:45:16;8.00;;;4.80;;
26582;SDS011;14230;45.382;10.998;2022-07-29T15:47:44;10.18;;;4.82;;
26582;SDS011;14230;45.382;10.998;2022-07-29T15:50:11;8.38;;;4.18;;
26582;SDS011;14230;45.382;10.998;2022-07-29T15:52:42;4.97;;;3.95;;
26582;SDS011;14230;45.382;10.998;2022-07-29T15:55:11;11.77;;;5.28;;
26582;SDS011;14230;45.382;10.998;2022-07-29T15:57:39;8.82;;;4.53;;
26582;SDS011;14230;45.382;10.998;2022-07-29T16:00:06;13.45;;;4.65;;
26582;SDS011;14230;45.382;10.998;2022-07-29T16:02:34;6.80;;;4.93;;
26582;SDS011;14230;45.382;10.998;2022-07-29T16:05:02;17.58;;;5.22;;
26582;SDS011;14230;45.382;10.998;2022-07-29T16:07:35;17.27;;;6.03;;
26582;SDS011;14230;45.382;10.998;2022-07-29T16:10:03;13.30;;;5.43;;
26582;SDS011;14230;45.382;10.998;2022-07-29T16:12:33;13.80;;;5.57;;
26582;SDS011;14230;45.382;10.998;2022-07-29T16:15:01;13.65;;;4.95;;
26582;SDS011;14230;45.382;10.998;2022-07-29T16:17:35;11.52;;;5.07;;
26582;SDS011;14230;45.382;10.998;2022-07-29T16:20:04;10.13;;;5.95;;
26582;SDS011;14230;45.382;10.998;2022-07-29T16:22:32;28.75;;;5.82;;
26582;SDS011;14230;45.382;10.998;2022-07-29T16:24:59;10.32;;;6.03;;
26582;SDS011;14230;45.382;10.998;2022-07-29T16:27:27;9.00;;;6.53;;
26582;SDS011;14230;45.382;10.998;2022-07-29T16:30:04;10.50;;;6.55;;
26582;SDS011;14230;45.382;10.998;2022-07-29T16:32:35;15.02;;;7.78;;
26582;SDS011;14230;45.382;10.998;2022-07-29T16:35:03;8.38;;;7.35;;
26582;SDS011;14230;45.382;10.998;2022-07-29T16:37:31;7.90;;;7.03;;
26582;SDS011;14230;45.382;10.998;2022-07-29T16:40:03;11.18;;;8.15;;
26582;SDS011;14230;45.382;10.998;2022-07-29T16:42:32;12.27;;;8.40;;
26582;SDS011;14230;45.382;10.998;2022-07-29T16:45:13;14.82;;;8.57;;
26582;SDS011;14230;45.382;10.998;2022-07-29T16:47:43;11.35;;;8.13;;
26582;SDS011;14230;45.382;10.998;2022-07-29T16:50:11;14.63;;;9.45;;
26582;SDS011;14230;45.382;10.998;2022-07-29T16:52:38;11.65;;;9.20;;
26582;SDS011;14230;45.382;10.998;2022-07-29T16:55:06;14.73;;;9.45;;
26582;SDS011;14230;45.382;10.998;2022-07-29T16:57:33;14.23;;;9.43;;
26582;SDS011;14230;45.382;10.998;2022-07-29T17:00:01;10.35;;;8.95;;
26582;SDS011;14230;45.382;10.998;2022-07-29T17:02:30;13.85;;;10.18;;
26582;SDS011;14230;45.382;10.998;2022-07-29T17:04:57;15.30;;;10.68;;
26582;SDS011;14230;45.382;10.998;2022-07-29T17:07:24;15.02;;;11.68;;
26582;SDS011;14230;45.382;10.998;2022-07-29T17:09:52;16.02;;;11.40;;
26582;SDS011;14230;45.382;10.998;2022-07-29T17:12:23;15.48;;;10.80;;
26582;SDS011;14230;45.382;10.998;2022-07-29T17:14:51;16.10;;;9.38;;
26582;SDS011;14230;45.382;10.998;2022-07-29T17:17:18;13.32;;;9.32;;
26582;SDS011;14230;45.382;10.998;2022-07-29T17:20:05;15.32;;;9.85;;
26582;SDS011;14230;45.382;10.998;2022-07-29T17:22:35;11.07;;;9.45;;
26582;SDS011;14230;45.382;10.998;2022-07-29T17:25:03;13.07;;;9.65;;
26582;SDS011;14230;45.382;10.998;2022-07-29T17:27:31;11.85;;;10.30;;
26582;SDS011;14230;45.382;10.998;2022-07-29T17:29:58;15.60;;;9.55;;
26582;SDS011;14230;45.382;10.998;2022-07-29T17:32:26;14.05;;;9.57;;
26582;SDS011;14230;45.382;10.998;2022-07-29T17:34:53;28.98;;;18.45;;
26582;SDS011;14230;45.382;10.998;2022-07-29T17:37:20;25.75;;;16.77;;
26582;SDS011;14230;45.382;10.998;2022-07-29T17:39:48;15.02;;;10.82;;
26582;SDS011;14230;45.382;10.998;2022-07-29T17:42:16;9.75;;;7.63;;
26582;SDS011;14230;45.382;10.998;2022-07-29T17:44:43;13.63;;;7.20;;
26582;SDS011;14230;45.382;10.998;2022-07-29T17:47:11;8.15;;;6.07;;
26582;SDS011;14230;45.382;10.998;2022-07-29T17:49:43;9.75;;;6.20;;
26582;SDS011;14230;45.382;10.998;2022-07-29T17:52:11;9.13;;;6.18;;
26582;SDS011;14230;45.382;10.998;2022-07-29T17:54:38;15.20;;;9.93;;
26582;SDS011;14230;45.382;10.998;2022-07-29T17:57:06;9.23;;;7.10;;
26582;SDS011;14230;45.382;10.998;2022-07-29T17:59:36;15.25;;;6.68;;
26582;SDS011;14230;45.382;10.998;2022-07-29T18:02:03;7.63;;;5.88;;
26582;SDS011;14230;45.382;10.998;2022-07-29T18:04:31;10.85;;;5.78;;
26582;SDS011;14230;45.382;10.998;2022-07-29T18:06:59;12.30;;;6.65;;
26582;SDS011;14230;45.382;10.998;2022-07-29T18:09:27;11.30;;;6.25;;
26582;SDS011;14230;45.382;10.998;2022-07-29T18:11:55;9.00;;;5.88;;
26582;SDS011;14230;45.382;10.998;2022-07-29T18:14:23;7.80;;;5.25;;
26582;SDS011;14230;45.382;10.998;2022-07-29T18:16:50;11.10;;;5.57;;
26582;SDS011;14230;45.382;10.998;2022-07-29T18:19:18;8.95;;;5.85;;
26582;SDS011;14230;45.382;10.998;2022-07-29T18:21:46;9.60;;;5.80;;
26582;SDS011;14230;45.382;10.998;2022-07-29T18:24:21;9.77;;;6.45;;
26582;SDS011;14230;45.382;10.998;2022-07-29T18:26:51;8.52;;;6.05;;
26582;SDS011;14230;45.382;10.998;2022-07-29T18:29:19;9.45;;;6.05;;
26582;SDS011;14230;45.382;10.998;2022-07-29T18:31:47;10.27;;;5.78;;
26582;SDS011;14230;45.382;10.998;2022-07-29T18:34:14;9.65;;;6.35;;
26582;SDS011;14230;45.382;10.998;2022-07-29T18:36:42;7.35;;;5.60;;
26582;SDS011;14230;45.382;10.998;2022-07-29T18:39:11;9.63;;;6.40;;
26582;SDS011;14230;45.382;10.998;2022-07-29T18:41:50;12.70;;;5.07;;
26582;SDS011;14230;45.382;10.998;2022-07-29T18:44:18;9.43;;;5.95;;
26582;SDS011;14230;45.382;10.998;2022-07-29T18:46:49;6.93;;;5.63;;
26582;SDS011;14230;45.382;10.998;2022-07-29T18:49:17;7.72;;;6.63;;
26582;SDS011;14230;45.382;10.998;2022-07-29T18:51:45;6.03;;;5.47;;
26582;SDS011;14230;45.382;10.998;2022-07-29T18:54:13;7.43;;;5.80;;
26582;SDS011;14230;45.382;10.998;2022-07-29T18:56:41;7.38;;;6.07;;
26582;SDS011;14230;45.382;10.998;2022-07-29T18:59:09;7.40;;;5.72;;
26582;SDS011;14230;45.382;10.998;2022-07-29T19:01:37;8.07;;;6.28;;
26582;SDS011;14230;45.382;10.998;2022-07-29T19:04:04;11.02;;;5.88;;
26582;SDS011;14230;45.382;10.998;2022-07-29T19:06:32;12.15;;;6.45;;
26582;SDS011;14230;45.382;10.998;2022-07-29T19:08:59;12.07;;;6.45;;
26582;SDS011;14230;45.382;10.998;2022-07-29T19:11:27;20.35;;;10.77;;
26582;SDS011;14230;45.382;10.998;2022-07-29T19:13:54;18.95;;;8.85;;
26582;SDS011;14230;45.382;10.998;2022-07-29T19:16:25;16.70;;;8.20;;
26582;SDS011;14230;45.382;10.998;2022-07-29T19:18:52;11.13;;;7.35;;
26582;SDS011;14230;45.382;10.998;2022-07-29T19:21:21;9.52;;;7.30;;
26582;SDS011;14230;45.382;10.998;2022-07-29T19:23:50;13.15;;;8.45;;
26582;SDS011;14230;45.382;10.998;2022-07-29T19:26:34;14.65;;;8.40;;
26582;SDS011;14230;45.382;10.998;2022-07-29T19:29:04;13.15;;;8.90;;
26582;SDS011;14230;45.382;10.998;2022-07-29T19:31:31;15.70;;;8.93;;
26582;SDS011;14230;45.382;10.998;2022-07-29T19:33:59;15.27;;;10.40;;
26582;SDS011;14230;45.382;10.998;2022-07-29T19:36:26;17.02;;;10.48;;
26582;SDS011;14230;45.382;10.998;2022-07-29T19:38:54;18.00;;;12.25;;
26582;SDS011;14230;45.382;10.998;2022-07-29T19:41:22;11.65;;;9.48;;
26582;SDS011;14230;45.382;10.998;2022-07-29T19:43:49;35.88;;;14.18;;
26582;SDS011;14230;45.382;10.998;2022-07-29T19:46:19;19.17;;;12.93;;
26582;SDS011;14230;45.382;10.998;2022-07-29T19:48:47;12.80;;;10.02;;
26582;SDS011;14230;45.382;10.998;2022-07-29T19:51:15;12.68;;;8.90;;
26582;SDS011;14230;45.382;10.998;2022-07-29T19:53:43;15.27;;;9.20;;
26582;SDS011;14230;45.382;10.998;2022-07-29T19:56:10;14.75;;;8.88;;
26582;SDS011;14230;45.382;10.998;2022-07-29T19:58:38;13.25;;;9.60;;
26582;SDS011;14230;45.382;10.998;2022-07-29T20:01:07;11.20;;;9.07;;
26582;SDS011;14230;45.382;10.998;2022-07-29T20:03:39;14.20;;;8.85;;
26582;SDS011;14230;45.382;10.998;2022-07-29T20:06:06;14.65;;;9.20;;
26582;SDS011;14230;45.382;10.998;2022-07-29T20:08:34;11.65;;;8.70;;
26582;SDS011;14230;45.382;10.998;2022-07-29T20:11:02;12.00;;;8.95;;
26582;SDS011;14230;45.382;10.998;2022-07-29T20:13:30;17.02;;;9.60;;
26582;SDS011;14230;45.382;10.998;2022-07-29T20:15:59;11.68;;;8.77;;
26582;SDS011;14230;45.382;10.998;2022-07-29T20:18:27;13.85;;;10.27;;
26582;SDS011;14230;45.382;10.998;2022-07-29T20:20:55;11.57;;;8.98;;
26582;SDS011;14230;45.382;10.998;2022-07-29T20:23:23;11.60;;;8.63;;
26582;SDS011;14230;45.382;10.998;2022-07-29T20:25:50;16.85;;;9.82;;
26582;SDS011;14230;45.382;10.998;2022-07-29T20:28:20;11.00;;;9.18;;
26582;SDS011;14230;45.382;10.998;2022-07-29T20:30:48;14.85;;;10.40;;
26582;SDS011;14230;45.382;10.998;2022-07-29T20:33:15;11.20;;;9.48;;
26582;SDS011;14230;45.382;10.998;2022-07-29T20:35:43;15.95;;;11.02;;
26582;SDS011;14230;45.382;10.998;2022-07-29T20:38:10;14.38;;;10.75;;
26582;SDS011;14230;45.382;10.998;2022-07-29T20:40:44;12.85;;;9.98;;
26582;SDS011;14230;45.382;10.998;2022-07-29T20:43:11;12.27;;;10.85;;
26582;SDS011;14230;45.382;10.998;2022-07-29T20:45:39;14.68;;;11.77;;
26582;SDS011;14230;45.382;10.998;2022-07-29T20:48:06;14.15;;;10.20;;
26582;SDS011;14230;45.382;10.998;2022-07-29T20:50:34;11.88;;;10.68;;
26582;SDS011;14230;45.382;10.998;2022-07-29T20:53:02;13.95;;;10.82;;
26582;SDS011;14230;45.382;10.998;2022-07-29T20:55:29;12.35;;;11.00;;
26582;SDS011;14230;45.382;10.998;2022-07-29T20:57:57;11.98;;;10.75;;
26582;SDS011;14230;45.382;10.998;2022-07-29T21:00:25;12.90;;;11.65;;
26582;SDS011;14230;45.382;10.998;2022-07-29T21:02:54;16.08;;;11.57;;
26582;SDS011;14230;45.382;10.998;2022-07-29T21:05:22;14.38;;;12.05;;
26582;SDS011;14230;45.382;10.998;2022-07-29T21:07:49;16.85;;;13.43;;
26582;SDS011;14230;45.382;10.998;2022-07-29T21:10:23;19.40;;;13.30;;
26582;SDS011;14230;45.382;10.998;2022-07-29T21:12:51;15.98;;;13.10;;
26582;SDS011;14230;45.382;10.998;2022-07-29T21:15:18;14.73;;;12.68;;
26582;SDS011;14230;45.382;10.998;2022-07-29T21:17:47;18.50;;;13.30;;
26582;SDS011;14230;45.382;10.998;2022-07-29T21:20:15;19.27;;;13.32;;
26582;SDS011;14230;45.382;10.998;2022-07-29T21:22:44;21.27;;;13.38;;
26582;SDS011;14230;45.382;10.998;2022-07-29T21:25:11;11.98;;;9.65;;
26582;SDS011;14230;45.382;10.998;2022-07-29T21:27:39;11.98;;;8.90;;
26582;SDS011;14230;45.382;10.998;2022-07-29T21:30:24;13.02;;;9.30;;
26582;SDS011;14230;45.382;10.998;2022-07-29T21:32:52;11.48;;;8.68;;
26582;SDS011;14230;45.382;10.998;2022-07-29T21:35:19;12.05;;;8.50;;
26582;SDS011;14230;45.382;10.998;2022-07-29T21:38:07;13.05;;;8.65;;
26582;SDS011;14230;45.382;10.998;2022-07-29T21:40:34;7.43;;;6.35;;
26582;SDS011;14230;45.382;10.998;2022-07-29T21:43:02;7.80;;;6.43;;
26582;SDS011;14230;45.382;10.998;2022-07-29T21:45:29;8.40;;;6.13;;
26582;SDS011;14230;45.382;10.998;2022-07-29T21:47:57;8.40;;;6.13;;
26582;SDS011;14230;45.382;10.998;2022-07-29T21:50:24;22.98;;;15.07;;
26582;SDS011;14230;45.382;10.998;2022-07-29T21:52:51;7.15;;;6.45;;
26582;SDS011;14230;45.382;10.998;2022-07-29T21:55:19;8.63;;;6.88;;
26582;SDS011;14230;45.382;10.998;2022-07-29T21:57:50;11.00;;;7.72;;
26582;SDS011;14230;45.382;10.998;2022-07-29T22:00:17;12.60;;;8.00;;
26582;SDS011;14230;45.382;10.998;2022-07-29T22:02:45;11.48;;;8.43;;
26582;SDS011;14230;45.382;10.998;2022-07-29T22:05:13;10.18;;;7.20;;
26582;SDS011;14230;45.382;10.998;2022-07-29T22:07:40;12.75;;;8.05;;
26582;SDS011;14230;45.382;10.998;2022-07-29T22:10:25;12.38;;;7.03;;
26582;SDS011;14230;45.382;10.998;2022-07-29T22:12:54;10.43;;;7.20;;
26582;SDS011;14230;45.382;10.998;2022-07-29T22:15:23;10.98;;;7.32;;
26582;SDS011;14230;45.382;10.998;2022-07-29T22:17:52;11.43;;;6.78;;
26582;SDS011;14230;45.382;10.998;2022-07-29T22:20:20;9.82;;;6.95;;
26582;SDS011;14230;45.382;10.998;2022-07-29T22:22:47;7.80;;;6.50;;
26582;SDS011;14230;45.382;10.998;2022-07-29T22:25:15;9.38;;;6.60;;
26582;SDS011;14230;45.382;10.998;2022-07-29T22:27:43;7.47;;;6.18;;
26582;SDS011;14230;45.382;10.998;2022-07-29T22:30:11;9.55;;;6.43;;
26582;SDS011;14230;45.382;10.998;2022-07-29T22:32:39;7.60;;;6.25;;
26582;SDS011;14230;45.382;10.998;2022-07-29T22:35:07;11.48;;;7.55;;
26582;SDS011;14230;45.382;10.998;2022-07-29T22:37:34;7.70;;;6.90;;
26582;SDS011;14230;45.382;10.998;2022-07-29T22:40:03;9.13;;;6.90;;
26582;SDS011;14230;45.382;10.998;2022-07-29T22:42:31;8.38;;;6.82;;
26582;SDS011;14230;45.382;10.998;2022-07-29T22:44:59;8.07;;;6.60;;
26582;SDS011;14230;45.382;10.998;2022-07-29T22:47:27;9.02;;;6.55;;
26582;SDS011;14230;45.382;10.998;2022-07-29T22:50:13;8.77;;;6.43;;
26582;SDS011;14230;45.382;10.998;2022-07-29T22:52:41;8.55;;;5.68;;
26582;SDS011;14230;45.382;10.998;2022-07-29T22:55:09;6.32;;;5.65;;
26582;SDS011;14230;45.382;10.998;2022-07-29T22:57:36;12.45;;;6.22;;
26582;SDS011;14230;45.382;10.998;2022-07-29T23:00:04;8.80;;;5.55;;
26582;SDS011;14230;45.382;10.998;2022-07-29T23:02:32;7.32;;;5.53;;
26582;SDS011;14230;45.382;10.998;2022-07-29T23:05:02;8.50;;;6.20;;
26582;SDS011;14230;45.382;10.998;2022-07-29T23:07:32;9.38;;;6.20;;
26582;SDS011;14230;45.382;10.998;2022-07-29T23:10:00;10.90;;;6.90;;
26582;SDS011;14230;45.382;10.998;2022-07-29T23:12:27;9.63;;;5.88;;
26582;SDS011;14230;45.382;10.998;2022-07-29T23:14:55;6.75;;;5.72;;
26582;SDS011;14230;45.382;10.998;2022-07-29T23:17:22;8.38;;;6.10;;
26582;SDS011;14230;45.382;10.998;2022-07-29T23:19:50;8.95;;;5.85;;
26582;SDS011;14230;45.382;10.998;2022-07-29T23:22:17;8.43;;;6.20;;
26582;SDS011;14230;45.382;10.998;2022-07-29T23:24:44;6.45;;;5.57;;
26582;SDS011;14230;45.382;10.998;2022-07-29T23:27:12;7.25;;;6.32;;
26582;SDS011;14230;45.382;10.998;2022-07-29T23:29:39;6.80;;;5.90;;
26582;SDS011;14230;45.382;10.998;2022-07-29T23:32:07;8.05;;;6.22;;
26582;SDS011;14230;45.382;10.998;2022-07-29T23:34:34;7.88;;;5.90;;
26582;SDS011;14230;45.382;10.998;2022-07-29T23:37:02;9.50;;;6.28;;
26582;SDS011;14230;45.382;10.998;2022-07-29T23:39:29;7.78;;;6.00;;
26582;SDS011;14230;45.382;10.998;2022-07-29T23:41:57;9.52;;;7.18;;
26582;SDS011;14230;45.382;10.998;2022-07-29T23:44:24;8.73;;;6.82;;
26582;SDS011;14230;45.382;10.998;2022-07-29T23:46:52;11.90;;;6.95;;
26582;SDS011;14230;45.382;10.998;2022-07-29T23:49:19;10.13;;;6.90;;
26582;SDS011;14230;45.382;10.998;2022-07-29T23:51:47;7.20;;;6.50;;
26582;SDS011;14230;45.382;10.998;2022-07-29T23:54:14;7.15;;;6.28;;
26582;SDS011;14230;45.382;10.998;2022-07-29T23:56:42;9.38;;;6.18;;
26582;SDS011;14230;45.382;10.998;2022-07-29T23:59:12;10.93;;;7.47;;
